createdAt,value
2023-01-29T00:02:24.630Z,6.80
2023-01-29T00:04:52.068Z,5.90
2023-01-29T00:07:20.007Z,6.70
2023-01-29T00:09:47.987Z,5.90
2023-01-29T00:12:15.592Z,6.97
2023-01-29T00:14:42.979Z,6.43
2023-01-29T00:17:10.688Z,6.40
2023-01-29T00:19:40.209Z,6.40
2023-01-29T00:22:07.617Z,7.23
2023-01-29T00:24:35.370Z,6.50
2023-01-29T00:27:03.056Z,6.27
2023-01-29T00:29:30.696Z,6.80
2023-01-29T00:31:59.399Z,6.17
2023-01-29T00:34:26.841Z,6.87
2023-01-29T00:37:04.815Z,5.90
2023-01-29T00:39:47.339Z,6.20
2023-01-29T00:42:34.171Z,5.70
2023-01-29T00:45:01.836Z,8.10
2023-01-29T00:47:33.844Z,7.20
2023-01-29T00:50:03.564Z,6.77
2023-01-29T00:52:31.112Z,6.47
2023-01-29T00:55:00.441Z,6.00
2023-01-29T00:57:30.741Z,6.70
2023-01-29T00:59:58.760Z,6.37
2023-01-29T01:02:45.552Z,5.90
2023-01-29T01:05:19.168Z,5.93
2023-01-29T01:07:49.742Z,5.80
2023-01-29T01:10:32.541Z,6.43
2023-01-29T01:13:05.324Z,5.93
2023-01-29T01:15:40.563Z,5.97
2023-01-29T01:18:09.303Z,6.70
2023-01-29T01:20:37.416Z,6.43
2023-01-29T01:23:04.876Z,5.93
2023-01-29T01:25:32.638Z,6.80
2023-01-29T01:28:03.326Z,6.97
2023-01-29T01:30:30.832Z,6.93
2023-01-29T01:33:01.088Z,6.47
2023-01-29T01:35:28.492Z,6.60
2023-01-29T01:37:55.739Z,7.80
2023-01-29T01:40:25.021Z,7.53
2023-01-29T01:42:57.963Z,6.77
2023-01-29T01:45:30.602Z,6.80
2023-01-29T01:48:37.424Z,6.93
2023-01-29T01:51:06.827Z,5.87
2023-01-29T01:53:44.942Z,7.63
2023-01-29T01:56:18.829Z,6.40
2023-01-29T01:58:59.942Z,7.50
2023-01-29T02:01:29.479Z,7.20
2023-01-29T02:04:27.727Z,6.73
2023-01-29T02:07:17.441Z,6.70
2023-01-29T02:10:05.909Z,7.73
2023-01-29T02:12:34.422Z,7.20
2023-01-29T02:15:02.495Z,7.13
2023-01-29T02:17:30.003Z,7.83
2023-01-29T02:20:08.482Z,7.23
2023-01-29T02:22:59.319Z,7.77
2023-01-29T02:25:30.036Z,7.90
2023-01-29T02:28:17.364Z,8.03
2023-01-29T02:31:11.472Z,7.97
2023-01-29T02:34:16.820Z,7.77
2023-01-29T02:37:09.433Z,7.93
2023-01-29T02:40:00.751Z,8.30
2023-01-29T02:42:40.721Z,8.20
2023-01-29T02:45:18.290Z,8.13
2023-01-29T02:47:48.877Z,7.97
2023-01-29T02:50:35.358Z,7.87
2023-01-29T02:53:12.185Z,7.57
2023-01-29T02:55:53.889Z,7.60
2023-01-29T02:58:30.712Z,7.27
2023-01-29T03:01:13.565Z,7.33
2023-01-29T03:03:45.731Z,7.80
2023-01-29T03:06:37.472Z,7.70
2023-01-29T03:09:09.845Z,6.13
2023-01-29T03:11:47.992Z,8.23
2023-01-29T03:14:24.886Z,6.60
2023-01-29T03:16:53.955Z,6.80
2023-01-29T03:19:36.452Z,7.27
2023-01-29T03:22:11.214Z,7.13
2023-01-29T03:25:03.390Z,6.90
2023-01-29T03:27:57.456Z,5.83
2023-01-29T03:30:48.661Z,6.10
2023-01-29T03:33:33.452Z,7.57
2023-01-29T03:36:14.764Z,6.37
2023-01-29T03:38:43.279Z,6.10
2023-01-29T03:41:22.440Z,7.03
2023-01-29T03:44:14.653Z,6.50
2023-01-29T03:46:54.264Z,5.93
2023-01-29T03:49:54.905Z,6.30
2023-01-29T03:52:30.815Z,6.10
2023-01-29T03:55:01.600Z,6.20
2023-01-29T03:57:35.805Z,6.07
2023-01-29T04:00:11.952Z,6.37
2023-01-29T04:03:21.383Z,6.23
2023-01-29T04:06:10.084Z,7.17
2023-01-29T04:09:25.098Z,6.40
2023-01-29T04:12:10.449Z,6.47
2023-01-29T04:14:41.461Z,6.83
2023-01-29T04:17:22.084Z,6.10
2023-01-29T04:19:56.129Z,7.03
2023-01-29T04:22:31.408Z,6.87
2023-01-29T04:25:02.863Z,6.83
2023-01-29T04:27:57.612Z,6.60
2023-01-29T04:30:53.048Z,6.70
2023-01-29T04:33:35.133Z,6.63
2023-01-29T04:36:21.161Z,6.33
2023-01-29T04:39:18.284Z,6.73
2023-01-29T04:41:59.793Z,6.30
2023-01-29T04:44:58.463Z,6.27
2023-01-29T04:47:47.749Z,7.10
2023-01-29T04:50:26.858Z,7.07
2023-01-29T04:53:16.185Z,6.93
2023-01-29T04:56:02.770Z,6.77
2023-01-29T04:58:42.495Z,7.20
2023-01-29T05:01:16.436Z,7.63
2023-01-29T05:03:50.043Z,7.47
2023-01-29T05:06:19.229Z,7.90
2023-01-29T05:08:49.065Z,7.83
2023-01-29T05:11:18.395Z,7.57
2023-01-29T05:13:49.249Z,7.80
2023-01-29T05:16:42.400Z,7.10
2023-01-29T05:19:13.701Z,7.47
2023-01-29T05:21:44.405Z,7.63
2023-01-29T05:24:19.562Z,7.17
2023-01-29T05:27:08.338Z,6.37
2023-01-29T05:29:35.860Z,4.77
2023-01-29T05:32:04.119Z,5.50
2023-01-29T05:34:31.417Z,5.10
2023-01-29T05:36:58.667Z,5.10
2023-01-29T05:39:26.207Z,5.50
2023-01-29T05:41:53.471Z,5.13
2023-01-29T05:44:21.125Z,5.60
2023-01-29T05:46:48.641Z,5.50
2023-01-29T05:49:18.087Z,5.17
2023-01-29T05:51:45.372Z,5.60
2023-01-29T05:54:13.595Z,5.70
2023-01-29T05:56:41.113Z,6.13
2023-01-29T05:59:09.294Z,5.73
2023-01-29T06:01:37.034Z,5.90
2023-01-29T06:04:04.574Z,6.20
2023-01-29T06:06:32.009Z,6.20
2023-01-29T06:09:00.480Z,5.53
2023-01-29T06:11:27.964Z,6.40
2023-01-29T06:13:55.847Z,6.70
2023-01-29T06:16:23.249Z,6.47
2023-01-29T06:18:52.072Z,7.03
2023-01-29T06:21:20.184Z,7.23
2023-01-29T06:23:47.719Z,7.47
2023-01-29T06:26:16.374Z,6.73
2023-01-29T06:28:45.893Z,7.13
2023-01-29T06:31:36.294Z,6.53
2023-01-29T06:34:00.495Z,6.93
2023-01-29T06:36:28.265Z,6.43
2023-01-29T06:38:55.606Z,6.53
2023-01-29T06:41:25.666Z,6.60
2023-01-29T06:43:53.441Z,7.17
2023-01-29T06:46:21.289Z,6.80
2023-01-29T06:48:48.790Z,7.03
2023-01-29T06:51:16.187Z,6.60
2023-01-29T06:53:46.051Z,5.87
2023-01-29T06:56:14.322Z,5.80
2023-01-29T06:58:43.469Z,6.47
2023-01-29T07:01:22.172Z,6.30
2023-01-29T07:03:56.635Z,6.10
2023-01-29T07:06:28.854Z,6.27
2023-01-29T07:08:56.815Z,5.77
2023-01-29T07:11:24.287Z,5.10
2023-01-29T07:13:52.653Z,5.17
2023-01-29T07:16:20.591Z,5.87
2023-01-29T07:18:48.003Z,5.93
2023-01-29T07:21:15.642Z,6.87
2023-01-29T07:23:42.920Z,6.17
2023-01-29T07:26:10.694Z,6.17
2023-01-29T07:28:38.772Z,5.80
2023-01-29T07:31:07.115Z,5.20
2023-01-29T07:33:35.199Z,5.60
2023-01-29T07:36:02.600Z,5.53
2023-01-29T07:38:30.019Z,5.10
2023-01-29T07:40:57.627Z,4.90
2023-01-29T07:43:25.128Z,5.33
2023-01-29T07:45:52.798Z,5.17
2023-01-29T07:48:20.345Z,5.23
2023-01-29T07:50:55.566Z,5.40
2023-01-29T07:53:23.466Z,5.50
2023-01-29T07:55:51.152Z,5.57
2023-01-29T07:58:18.464Z,5.57
2023-01-29T08:00:46.308Z,5.83
2023-01-29T08:03:19.965Z,5.10
2023-01-29T08:05:47.555Z,5.13
2023-01-29T08:08:15.579Z,6.23
2023-01-29T08:10:43.159Z,5.50
2023-01-29T08:13:10.888Z,5.77
2023-01-29T08:15:39.385Z,5.77
2023-01-29T08:18:07.231Z,5.40
2023-01-29T08:20:34.876Z,5.63
2023-01-29T08:23:04.476Z,5.03
2023-01-29T08:25:32.409Z,5.33
2023-01-29T08:28:00.967Z,4.97
2023-01-29T08:30:32.771Z,4.60
2023-01-29T08:33:00.454Z,6.30
2023-01-29T08:35:28.053Z,6.17
2023-01-29T08:38:00.621Z,49.13
2023-01-29T08:40:30.655Z,9.57
2023-01-29T08:43:02.101Z,5.07
2023-01-29T08:45:32.030Z,6.13
2023-01-29T08:47:59.521Z,6.03
2023-01-29T08:50:26.832Z,6.93
2023-01-29T08:52:59.286Z,7.20
2023-01-29T08:55:27.095Z,8.33
2023-01-29T08:57:54.696Z,6.50
2023-01-29T09:00:22.324Z,7.30
2023-01-29T09:02:49.924Z,7.77
2023-01-29T09:05:17.904Z,5.37
2023-01-29T09:07:45.447Z,7.27
2023-01-29T09:10:13.530Z,5.67
2023-01-29T09:12:41.025Z,6.00
2023-01-29T09:15:08.902Z,5.67
2023-01-29T09:17:36.267Z,5.73
2023-01-29T09:20:06.208Z,5.70
2023-01-29T09:22:33.839Z,5.93
2023-01-29T09:25:01.497Z,5.60
2023-01-29T09:27:29.057Z,5.87
2023-01-29T09:29:56.332Z,6.43
2023-01-29T09:32:51.688Z,6.00
2023-01-29T09:35:11.005Z,6.00
2023-01-29T09:37:38.285Z,5.93
2023-01-29T09:40:06.737Z,5.83
2023-01-29T09:42:49.480Z,5.80
2023-01-29T09:45:24.728Z,6.33
2023-01-29T09:47:53.576Z,5.47
2023-01-29T09:50:37.495Z,5.90
2023-01-29T09:53:07.624Z,6.73
2023-01-29T09:55:46.447Z,6.77
2023-01-29T09:58:33.426Z,7.20
2023-01-29T10:01:58.330Z,6.80
2023-01-29T10:04:45.616Z,9.00
2023-01-29T10:07:19.006Z,6.90
2023-01-29T10:10:00.353Z,7.03
2023-01-29T10:12:54.838Z,6.73
2023-01-29T10:15:46.008Z,6.53
2023-01-29T10:18:42.556Z,6.67
2023-01-29T10:21:28.653Z,6.60
2023-01-29T10:24:12.144Z,7.13
2023-01-29T10:26:40.942Z,6.23
2023-01-29T10:29:13.686Z,6.80
2023-01-29T10:31:41.480Z,6.80
2023-01-29T10:34:23.968Z,7.40
2023-01-29T10:36:51.431Z,7.80
2023-01-29T10:39:24.607Z,7.63
2023-01-29T10:42:10.427Z,7.20
2023-01-29T10:45:00.886Z,6.90
2023-01-29T10:48:05.227Z,7.20
2023-01-29T10:51:29.943Z,8.00
2023-01-29T10:54:35.671Z,7.67
2023-01-29T10:57:23.175Z,7.47
2023-01-29T11:00:13.665Z,7.57
2023-01-29T11:02:46.389Z,8.13
2023-01-29T11:05:41.443Z,7.47
2023-01-29T11:08:13.501Z,9.33
2023-01-29T11:11:06.589Z,7.70
2023-01-29T11:13:40.059Z,7.60
2023-01-29T11:16:09.777Z,8.47
2023-01-29T11:19:00.363Z,8.40
2023-01-29T11:21:29.968Z,8.27
2023-01-29T11:24:17.441Z,8.17
2023-01-29T11:26:48.835Z,7.63
2023-01-29T11:29:38.269Z,7.83
2023-01-29T11:32:13.179Z,7.83
2023-01-29T11:35:04.058Z,8.00
2023-01-29T11:37:37.426Z,7.47
2023-01-29T11:40:32.933Z,7.10
2023-01-29T11:43:19.990Z,8.17
2023-01-29T11:45:50.116Z,8.30
2023-01-29T11:48:21.059Z,8.60
2023-01-29T11:50:57.276Z,8.23
2023-01-29T11:53:33.805Z,9.97
2023-01-29T11:56:03.750Z,9.00
2023-01-29T11:58:34.783Z,8.53
2023-01-29T12:01:02.980Z,8.20
2023-01-29T12:03:53.292Z,8.87
2023-01-29T12:06:24.287Z,8.87
2023-01-29T12:09:01.023Z,9.23
2023-01-29T12:11:34.205Z,8.77
2023-01-29T12:14:21.999Z,8.57
2023-01-29T12:17:01.910Z,9.30
2023-01-29T12:19:39.304Z,8.77
2023-01-29T12:22:10.197Z,10.30
2023-01-29T12:24:49.159Z,9.03
2023-01-29T12:27:22.563Z,9.50
2023-01-29T12:30:12.245Z,9.33
2023-01-29T12:33:06.908Z,9.73
2023-01-29T12:35:59.991Z,8.97
2023-01-29T12:38:27.416Z,9.73
2023-01-29T12:41:24.109Z,9.70
2023-01-29T12:44:06.244Z,10.60
2023-01-29T12:46:50.919Z,9.87
2023-01-29T12:49:24.446Z,9.97
2023-01-29T12:52:02.940Z,10.13
2023-01-29T12:54:50.432Z,10.10
2023-01-29T12:57:26.220Z,9.97
2023-01-29T13:00:02.633Z,11.20
2023-01-29T13:03:18.735Z,11.07
2023-01-29T13:05:50.483Z,9.97
2023-01-29T13:08:20.747Z,10.73
2023-01-29T13:10:54.378Z,10.17
2023-01-29T13:13:36.497Z,12.30
2023-01-29T13:16:12.943Z,10.63
2023-01-29T13:18:59.083Z,9.70
2023-01-29T13:21:39.579Z,11.03
2023-01-29T13:24:20.570Z,10.57
2023-01-29T13:26:49.459Z,15.17
2023-01-29T13:29:29.712Z,10.77
2023-01-29T13:32:00.539Z,10.90
2023-01-29T13:34:37.795Z,10.90
2023-01-29T13:37:12.820Z,10.23
2023-01-29T13:39:48.906Z,10.00
2023-01-29T13:42:47.169Z,10.67
2023-01-29T13:45:27.368Z,10.90
2023-01-29T13:48:09.910Z,11.80
2023-01-29T13:50:41.360Z,11.23
2023-01-29T13:53:21.462Z,10.87
2023-01-29T13:55:48.846Z,10.40
2023-01-29T13:58:31.376Z,10.33
2023-01-29T14:01:01.151Z,11.90
2023-01-29T14:03:32.190Z,10.97
2023-01-29T14:06:03.604Z,11.57
2023-01-29T14:08:44.625Z,11.70
2023-01-29T14:11:34.525Z,10.83
2023-01-29T14:14:02.238Z,10.77
2023-01-29T14:16:35.669Z,12.67
2023-01-29T14:19:05.431Z,11.57
2023-01-29T14:21:36.765Z,11.53
2023-01-29T14:24:21.099Z,12.17
2023-01-29T14:26:54.217Z,11.73
2023-01-29T14:29:35.092Z,12.10
2023-01-29T14:32:19.347Z,12.60
2023-01-29T14:35:01.402Z,11.80
2023-01-29T14:37:36.637Z,11.27
2023-01-29T14:40:19.492Z,11.40
2023-01-29T14:42:57.422Z,11.17
2023-01-29T14:45:29.198Z,11.80
2023-01-29T14:48:02.866Z,12.13
2023-01-29T14:50:31.936Z,10.87
2023-01-29T14:53:07.080Z,12.43
2023-01-29T14:55:48.486Z,12.13
2023-01-29T14:58:26.131Z,12.20
2023-01-29T15:00:56.138Z,12.40
2023-01-29T15:03:46.055Z,11.90
2023-01-29T15:06:22.660Z,11.77
2023-01-29T15:09:02.756Z,11.83
2023-01-29T15:11:40.687Z,12.80
2023-01-29T15:14:24.213Z,12.87
2023-01-29T15:17:13.792Z,12.43
2023-01-29T15:19:48.649Z,14.93
2023-01-29T15:22:17.726Z,11.77
2023-01-29T15:24:47.065Z,12.33
2023-01-29T15:27:17.531Z,12.60
2023-01-29T15:29:56.745Z,13.47
2023-01-29T15:32:42.904Z,12.37
2023-01-29T15:35:30.071Z,14.03
2023-01-29T15:38:15.985Z,13.17
2023-01-29T15:40:56.908Z,12.43
2023-01-29T15:43:36.482Z,16.37
2023-01-29T15:46:10.749Z,15.40
2023-01-29T15:48:41.683Z,14.77
2023-01-29T15:51:15.440Z,13.30
2023-01-29T15:54:04.305Z,13.90
2023-01-29T15:57:00.005Z,14.50
2023-01-29T15:59:35.235Z,12.50
2023-01-29T16:02:37.992Z,12.80
2023-01-29T16:05:15.533Z,11.60
2023-01-29T16:07:44.324Z,14.40
2023-01-29T16:10:18.564Z,11.17
2023-01-29T16:12:51.604Z,15.80
2023-01-29T16:15:33.035Z,11.57
2023-01-29T16:18:02.655Z,11.50
2023-01-29T16:20:37.677Z,12.53
2023-01-29T16:23:06.890Z,12.07
2023-01-29T16:25:37.621Z,11.53
2023-01-29T16:28:07.504Z,14.30
2023-01-29T16:30:35.320Z,12.73
2023-01-29T16:33:08.415Z,15.00
2023-01-29T16:35:36.225Z,11.37
2023-01-29T16:38:08.191Z,11.70
2023-01-29T16:40:38.278Z,11.60
2023-01-29T16:43:18.195Z,11.97
2023-01-29T16:46:06.000Z,11.33
2023-01-29T16:48:35.345Z,13.63
2023-01-29T16:51:06.520Z,13.77
2023-01-29T16:53:35.927Z,12.77
2023-01-29T16:56:07.506Z,11.70
2023-01-29T16:58:35.419Z,11.87
2023-01-29T17:01:08.634Z,13.50
2023-01-29T17:03:37.361Z,11.77
2023-01-29T17:06:21.631Z,10.63
2023-01-29T17:08:49.316Z,12.33
2023-01-29T17:11:27.831Z,12.80
2023-01-29T17:13:57.422Z,10.67
2023-01-29T17:16:37.627Z,10.97
2023-01-29T17:19:18.416Z,12.17
2023-01-29T17:21:46.580Z,13.00
2023-01-29T17:24:13.873Z,15.10
2023-01-29T17:26:41.691Z,11.57
2023-01-29T17:29:20.165Z,12.70
2023-01-29T17:31:47.751Z,25.17
2023-01-29T17:34:16.770Z,21.20
2023-01-29T17:36:44.626Z,17.83
2023-01-29T17:39:23.693Z,16.77
2023-01-29T17:41:56.455Z,17.13
2023-01-29T17:44:26.192Z,16.03
2023-01-29T17:46:53.703Z,19.47
2023-01-29T17:49:34.215Z,19.10
2023-01-29T17:52:01.883Z,22.73
2023-01-29T17:54:29.548Z,18.77
2023-01-29T17:56:58.069Z,17.17
2023-01-29T17:59:31.145Z,18.60
2023-01-29T18:01:59.347Z,15.27
2023-01-29T18:04:26.853Z,14.53
2023-01-29T18:06:56.679Z,14.17
2023-01-29T18:09:25.020Z,17.67
2023-01-29T18:11:53.398Z,16.73
2023-01-29T18:14:21.043Z,14.97
2023-01-29T18:16:48.759Z,18.80
2023-01-29T18:19:22.288Z,18.30
2023-01-29T18:21:50.855Z,16.73
2023-01-29T18:24:20.474Z,33.83
2023-01-29T18:26:49.341Z,50.43
2023-01-29T18:29:16.819Z,42.50
2023-01-29T18:31:44.850Z,43.47
2023-01-29T18:34:12.299Z,28.30
2023-01-29T18:36:39.748Z,24.80
2023-01-29T18:39:07.430Z,26.23
2023-01-29T18:41:34.744Z,21.60
2023-01-29T18:44:02.250Z,22.93
2023-01-29T18:46:29.582Z,23.17
2023-01-29T18:48:56.867Z,21.87
2023-01-29T18:51:24.369Z,20.53
2023-01-29T18:53:52.613Z,21.80
2023-01-29T18:56:20.419Z,16.50
2023-01-29T18:58:52.167Z,15.73
2023-01-29T19:01:23.697Z,15.10
2023-01-29T19:03:51.369Z,15.60
2023-01-29T19:06:18.789Z,16.30
2023-01-29T19:08:47.676Z,19.27
2023-01-29T19:11:15.211Z,15.67
2023-01-29T19:13:43.029Z,20.30
2023-01-29T19:16:12.138Z,17.23
2023-01-29T19:18:39.860Z,18.60
2023-01-29T19:21:13.171Z,17.17
2023-01-29T19:23:42.334Z,18.77
2023-01-29T19:26:10.530Z,20.00
2023-01-29T19:28:38.032Z,18.27
2023-01-29T19:31:05.452Z,24.20
2023-01-29T19:33:33.464Z,20.90
2023-01-29T19:36:01.483Z,18.60
2023-01-29T19:38:29.327Z,22.47
2023-01-29T19:40:59.171Z,21.20
2023-01-29T19:43:33.340Z,24.07
2023-01-29T19:46:02.120Z,18.87
2023-01-29T19:48:29.800Z,19.73
2023-01-29T19:50:58.920Z,25.20
2023-01-29T19:53:28.613Z,26.53
2023-01-29T19:56:03.236Z,26.37
2023-01-29T19:58:31.406Z,30.07
2023-01-29T20:01:04.886Z,38.03
2023-01-29T20:03:32.578Z,29.43
2023-01-29T20:06:04.782Z,28.60
2023-01-29T20:08:33.502Z,30.77
2023-01-29T20:11:01.279Z,35.43
2023-01-29T20:13:28.956Z,34.73
2023-01-29T20:15:56.696Z,29.87
2023-01-29T20:18:24.106Z,29.10
2023-01-29T20:20:53.164Z,29.30
2023-01-29T20:23:36.672Z,34.43
2023-01-29T20:26:07.166Z,32.43
2023-01-29T20:28:35.021Z,31.30
2023-01-29T20:31:03.014Z,52.77
2023-01-29T20:33:30.682Z,75.80
2023-01-29T20:36:00.928Z,69.33
2023-01-29T20:38:30.535Z,49.13
2023-01-29T20:41:25.677Z,36.23
2023-01-29T20:43:52.972Z,31.67
2023-01-29T20:46:20.827Z,33.80
2023-01-29T20:48:49.789Z,24.87
2023-01-29T20:51:17.909Z,27.70
2023-01-29T20:53:46.600Z,27.10
2023-01-29T20:56:15.788Z,27.07
2023-01-29T20:58:43.351Z,25.67
2023-01-29T21:01:19.112Z,31.83
2023-01-29T21:03:48.221Z,31.43
2023-01-29T21:06:16.377Z,31.10
2023-01-29T21:08:43.699Z,32.73
2023-01-29T21:11:11.675Z,32.73
2023-01-29T21:13:39.089Z,30.67
2023-01-29T21:16:06.794Z,30.33
2023-01-29T21:18:34.419Z,29.00
2023-01-29T21:21:01.775Z,33.43
2023-01-29T21:23:29.232Z,37.33
2023-01-29T21:26:04.785Z,43.57
2023-01-29T21:28:33.141Z,39.67
2023-01-29T21:31:10.253Z,44.03
2023-01-29T21:33:37.791Z,32.37
2023-01-29T21:36:05.740Z,34.33
2023-01-29T21:38:33.472Z,32.83
2023-01-29T21:41:06.538Z,34.97
2023-01-29T21:43:33.856Z,29.77
2023-01-29T21:46:05.199Z,35.13
2023-01-29T21:48:32.950Z,35.17
2023-01-29T21:51:00.225Z,33.97
2023-01-29T21:53:28.190Z,39.77
2023-01-29T21:56:03.081Z,33.13
2023-01-29T21:58:31.107Z,37.33
2023-01-29T22:01:22.872Z,36.03
2023-01-29T22:03:47.524Z,34.90
2023-01-29T22:06:15.731Z,32.27
2023-01-29T22:08:43.201Z,32.50
2023-01-29T22:11:11.200Z,26.80
2023-01-29T22:13:38.803Z,26.10
2023-01-29T22:16:06.669Z,28.30
2023-01-29T22:18:34.225Z,25.07
2023-01-29T22:21:02.915Z,29.63
2023-01-29T22:23:31.213Z,28.23
2023-01-29T22:26:06.737Z,31.97
2023-01-29T22:28:34.334Z,31.53
2023-01-29T22:31:03.108Z,32.43
2023-01-29T22:33:32.271Z,30.13
2023-01-29T22:36:00.098Z,30.77
2023-01-29T22:38:27.800Z,31.27
2023-01-29T22:40:56.644Z,31.73
2023-01-29T22:43:26.107Z,32.20
2023-01-29T22:45:53.352Z,34.67
2023-01-29T22:48:22.807Z,34.43
2023-01-29T22:51:11.409Z,31.87
2023-01-29T22:53:51.063Z,34.40
2023-01-29T22:56:20.520Z,32.90
2023-01-29T22:58:53.243Z,40.37
2023-01-29T23:01:27.323Z,29.90
2023-01-29T23:03:55.977Z,32.87
2023-01-29T23:06:23.863Z,32.27
2023-01-29T23:08:51.892Z,34.03
2023-01-29T23:11:21.359Z,31.23
2023-01-29T23:13:54.497Z,27.37
2023-01-29T23:16:26.945Z,31.20
2023-01-29T23:18:56.298Z,28.80
2023-01-29T23:21:25.120Z,32.17
2023-01-29T23:23:54.559Z,32.93
2023-01-29T23:26:40.419Z,35.13
2023-01-29T23:29:07.739Z,32.37
2023-01-29T23:31:35.335Z,32.83
2023-01-29T23:34:02.783Z,32.47
2023-01-29T23:36:30.216Z,36.50
2023-01-29T23:38:57.508Z,31.10
2023-01-29T23:41:25.106Z,31.07
2023-01-29T23:43:53.084Z,30.67
2023-01-29T23:46:20.825Z,32.97
2023-01-29T23:48:48.631Z,32.57
2023-01-29T23:51:16.810Z,35.90
2023-01-29T23:53:44.084Z,27.77
2023-01-29T23:56:11.666Z,32.57
2023-01-29T23:58:39.087Z,35.47
